createdAt,value
2023-05-20T00:02:29.265Z,6.55
2023-05-20T00:04:57.535Z,5.72
2023-05-20T00:07:26.202Z,7.07
2023-05-20T00:09:54.317Z,6.13
2023-05-20T00:12:22.301Z,6.38
2023-05-20T00:14:50.271Z,6.80
2023-05-20T00:17:18.420Z,6.95
2023-05-20T00:19:47.733Z,6.82
2023-05-20T00:22:15.676Z,6.97
2023-05-20T00:24:43.658Z,6.82
2023-05-20T00:27:11.612Z,6.97
2023-05-20T00:29:39.584Z,7.15
2023-05-20T00:32:08.338Z,6.78
2023-05-20T00:34:36.363Z,6.95
2023-05-20T00:37:06.205Z,6.45
2023-05-20T00:39:34.184Z,6.85
2023-05-20T00:42:03.592Z,7.47
2023-05-20T00:44:31.537Z,7.22
2023-05-20T00:46:59.795Z,6.60
2023-05-20T00:49:27.887Z,6.95
2023-05-20T00:51:56.397Z,6.60
2023-05-20T00:54:25.751Z,7.18
2023-05-20T00:56:54.220Z,7.20
2023-05-20T00:59:22.173Z,6.60
2023-05-20T01:01:50.854Z,6.03
2023-05-20T01:04:19.056Z,7.97
2023-05-20T01:06:47.924Z,6.68
2023-05-20T01:09:16.042Z,6.78
2023-05-20T01:11:53.005Z,8.23
2023-05-20T01:14:25.218Z,7.72
2023-05-20T01:16:58.450Z,7.28
2023-05-20T01:19:36.544Z,8.27
2023-05-20T01:22:08.048Z,7.72
2023-05-20T01:24:37.611Z,7.50
2023-05-20T01:27:10.336Z,6.55
2023-05-20T01:29:38.751Z,7.10
2023-05-20T01:32:10.003Z,8.00
2023-05-20T01:34:40.093Z,7.35
2023-05-20T01:37:09.426Z,7.35
2023-05-20T01:39:41.993Z,7.07
2023-05-20T01:42:11.546Z,7.13
2023-05-20T01:44:39.665Z,7.47
2023-05-20T01:47:08.596Z,7.40
2023-05-20T01:49:36.559Z,6.95
2023-05-20T01:52:05.148Z,6.97
2023-05-20T01:54:33.115Z,7.20
2023-05-20T01:57:03.079Z,7.00
2023-05-20T01:59:31.134Z,7.28
2023-05-20T02:01:59.148Z,6.40
2023-05-20T02:04:27.341Z,7.03
2023-05-20T02:06:55.848Z,5.85
2023-05-20T02:09:24.673Z,7.70
2023-05-20T02:11:53.750Z,6.53
2023-05-20T02:14:23.140Z,7.13
2023-05-20T02:16:51.183Z,7.00
2023-05-20T02:19:23.810Z,7.22
2023-05-20T02:21:52.130Z,7.90
2023-05-20T02:24:21.265Z,6.78
2023-05-20T02:26:51.257Z,7.18
2023-05-20T02:29:20.107Z,6.22
2023-05-20T02:31:49.704Z,6.78
2023-05-20T02:34:18.817Z,7.13
2023-05-20T02:36:46.787Z,7.55
2023-05-20T02:39:15.627Z,7.07
2023-05-20T02:41:43.600Z,7.85
2023-05-20T02:44:11.605Z,7.35
2023-05-20T02:46:39.617Z,7.60
2023-05-20T02:49:08.971Z,7.65
2023-05-20T02:51:37.613Z,7.47
2023-05-20T02:54:05.690Z,6.93
2023-05-20T02:56:34.370Z,6.22
2023-05-20T02:59:03.719Z,6.57
2023-05-20T03:01:33.869Z,5.55
2023-05-20T03:04:02.115Z,7.43
2023-05-20T03:06:31.919Z,6.93
2023-05-20T03:08:59.986Z,7.28
2023-05-20T03:11:27.950Z,7.68
2023-05-20T03:13:55.887Z,7.55
2023-05-20T03:16:25.267Z,7.68
2023-05-20T03:18:54.625Z,7.68
2023-05-20T03:21:24.281Z,8.10
2023-05-20T03:23:53.781Z,7.50
2023-05-20T03:26:23.501Z,7.75
2023-05-20T03:28:52.020Z,7.22
2023-05-20T03:31:20.408Z,7.65
2023-05-20T03:33:48.498Z,8.63
2023-05-20T03:36:16.539Z,7.97
2023-05-20T03:38:44.503Z,8.15
2023-05-20T03:41:13.878Z,7.05
2023-05-20T03:43:42.068Z,8.73
2023-05-20T03:46:09.998Z,8.00
2023-05-20T03:48:38.020Z,7.32
2023-05-20T03:51:06.051Z,8.05
2023-05-20T03:53:34.652Z,8.10
2023-05-20T03:56:02.980Z,7.30
2023-05-20T03:58:33.230Z,6.78
2023-05-20T04:01:01.186Z,7.50
2023-05-20T04:03:30.216Z,6.88
2023-05-20T04:05:58.407Z,6.70
2023-05-20T04:08:26.944Z,6.78
2023-05-20T04:10:57.403Z,6.50
2023-05-20T04:13:26.470Z,6.75
2023-05-20T04:15:56.016Z,7.15
2023-05-20T04:18:24.243Z,7.20
2023-05-20T04:20:56.919Z,6.75
2023-05-20T04:23:25.409Z,6.80
2023-05-20T04:25:55.212Z,8.05
2023-05-20T04:28:28.178Z,6.82
2023-05-20T04:31:02.821Z,7.32
2023-05-20T04:33:33.038Z,7.93
2023-05-20T04:36:03.167Z,8.57
2023-05-20T04:38:32.430Z,7.75
2023-05-20T04:41:02.177Z,7.40
2023-05-20T04:43:31.304Z,7.22
2023-05-20T04:46:01.452Z,6.85
2023-05-20T04:48:29.427Z,7.25
2023-05-20T04:50:58.024Z,8.10
2023-05-20T04:53:26.364Z,7.85
2023-05-20T04:55:56.990Z,7.20
2023-05-20T04:58:25.535Z,6.47
2023-05-20T05:00:54.379Z,6.72
2023-05-20T05:03:23.790Z,7.90
2023-05-20T05:05:51.769Z,8.00
2023-05-20T05:08:20.156Z,7.38
2023-05-20T05:10:51.943Z,7.18
2023-05-20T05:13:20.008Z,7.28
2023-05-20T05:15:49.614Z,7.57
2023-05-20T05:18:19.447Z,7.35
2023-05-20T05:20:48.777Z,7.03
2023-05-20T05:23:16.706Z,7.18
2023-05-20T05:25:44.722Z,7.30
2023-05-20T05:28:13.018Z,7.18
2023-05-20T05:30:40.964Z,6.85
2023-05-20T05:33:08.904Z,5.88
2023-05-20T05:35:36.881Z,6.30
2023-05-20T05:38:06.197Z,6.40
2023-05-20T05:40:37.319Z,6.65
2023-05-20T05:43:05.516Z,6.65
2023-05-20T05:45:34.649Z,6.65
2023-05-20T05:48:02.855Z,7.30
2023-05-20T05:50:31.391Z,7.20
2023-05-20T05:52:59.327Z,7.50
2023-05-20T05:55:28.904Z,7.78
2023-05-20T05:57:56.903Z,8.52
2023-05-20T06:00:24.965Z,8.73
2023-05-20T06:02:53.226Z,9.77
2023-05-20T06:05:32.667Z,9.85
2023-05-20T06:08:00.900Z,9.98
2023-05-20T06:10:30.316Z,10.38
2023-05-20T06:12:58.308Z,9.70
2023-05-20T06:15:27.324Z,9.25
2023-05-20T06:17:55.928Z,9.85
2023-05-20T06:20:24.201Z,9.70
2023-05-20T06:22:52.377Z,10.95
2023-05-20T06:25:23.158Z,10.60
2023-05-20T06:27:53.196Z,10.70
2023-05-20T06:30:22.692Z,10.85
2023-05-20T06:32:50.920Z,10.18
2023-05-20T06:35:19.168Z,10.35
2023-05-20T06:37:47.222Z,10.10
2023-05-20T06:40:15.415Z,9.35
2023-05-20T06:42:44.266Z,9.40
2023-05-20T06:45:14.095Z,10.02
2023-05-20T06:47:44.595Z,9.82
2023-05-20T06:50:13.180Z,12.05
2023-05-20T06:52:41.353Z,9.95
2023-05-20T06:55:10.934Z,9.85
2023-05-20T06:57:38.945Z,9.25
2023-05-20T07:00:08.325Z,10.07
2023-05-20T07:02:43.177Z,9.55
2023-05-20T07:05:13.757Z,9.93
2023-05-20T07:07:41.694Z,10.00
2023-05-20T07:10:10.782Z,9.38
2023-05-20T07:12:38.843Z,9.63
2023-05-20T07:15:07.781Z,8.68
2023-05-20T07:17:36.444Z,9.80
2023-05-20T07:20:08.240Z,9.20
2023-05-20T07:22:37.143Z,8.27
2023-05-20T07:25:15.894Z,7.60
2023-05-20T07:27:44.004Z,7.97
2023-05-20T07:30:12.253Z,8.23
2023-05-20T07:32:42.361Z,7.43
2023-05-20T07:35:11.868Z,7.40
2023-05-20T07:37:39.820Z,7.63
2023-05-20T07:40:09.766Z,7.47
2023-05-20T07:42:39.746Z,7.85
2023-05-20T07:45:08.877Z,8.45
2023-05-20T07:47:37.059Z,8.35
2023-05-20T07:50:05.340Z,7.72
2023-05-20T07:52:51.808Z,7.90
2023-05-20T07:55:24.748Z,7.03
2023-05-20T07:57:53.251Z,7.35
2023-05-20T08:00:22.644Z,7.43
2023-05-20T08:02:50.836Z,7.82
2023-05-20T08:05:25.750Z,8.10
2023-05-20T08:07:55.196Z,8.15
2023-05-20T08:10:26.025Z,8.02
2023-05-20T08:12:55.145Z,7.82
2023-05-20T08:15:23.157Z,7.05
2023-05-20T08:17:51.344Z,7.85
2023-05-20T08:20:19.472Z,8.55
2023-05-20T08:22:47.465Z,8.00
2023-05-20T08:25:16.888Z,7.55
2023-05-20T08:27:45.830Z,7.82
2023-05-20T08:30:14.297Z,7.95
2023-05-20T08:32:42.818Z,7.88
2023-05-20T08:35:12.990Z,7.32
2023-05-20T08:37:41.048Z,7.15
2023-05-20T08:40:11.877Z,6.75
2023-05-20T08:42:44.217Z,6.47
2023-05-20T08:45:14.273Z,6.80
2023-05-20T08:47:44.275Z,7.22
2023-05-20T08:50:13.757Z,6.47
2023-05-20T08:52:44.597Z,6.22
2023-05-20T08:55:17.510Z,7.32
2023-05-20T08:57:47.241Z,5.85
2023-05-20T09:00:17.179Z,5.85
2023-05-20T09:02:46.921Z,6.13
2023-05-20T09:05:15.117Z,6.00
2023-05-20T09:07:43.799Z,5.70
2023-05-20T09:10:12.083Z,5.70
2023-05-20T09:12:40.090Z,6.97
2023-05-20T09:15:10.818Z,6.75
2023-05-20T09:17:39.655Z,5.88
2023-05-20T09:20:09.888Z,7.30
2023-05-20T09:22:39.800Z,5.93
2023-05-20T09:25:09.531Z,6.20
2023-05-20T09:27:37.443Z,6.40
2023-05-20T09:30:12.731Z,6.35
2023-05-20T09:32:41.204Z,6.22
2023-05-20T09:35:09.809Z,7.25
2023-05-20T09:37:38.693Z,6.70
2023-05-20T09:40:10.274Z,6.50
2023-05-20T09:42:43.442Z,6.30
2023-05-20T09:45:13.399Z,5.93
2023-05-20T09:47:42.680Z,6.25
2023-05-20T09:50:11.054Z,6.30
2023-05-20T09:52:39.966Z,6.10
2023-05-20T09:55:10.487Z,6.60
2023-05-20T09:57:39.204Z,5.88
2023-05-20T10:00:10.298Z,6.35
2023-05-20T10:02:43.857Z,6.20
2023-05-20T10:05:16.713Z,6.65
2023-05-20T10:08:15.822Z,7.55
2023-05-20T10:10:49.526Z,5.85
2023-05-20T10:13:33.420Z,5.28
2023-05-20T10:16:11.339Z,5.47
2023-05-20T10:18:53.062Z,6.38
2023-05-20T10:21:24.592Z,5.88
2023-05-20T10:23:53.295Z,6.85
2023-05-20T10:26:21.895Z,6.95
2023-05-20T10:28:50.287Z,6.35
2023-05-20T10:31:19.688Z,5.82
2023-05-20T10:33:49.780Z,5.30
2023-05-20T10:36:26.314Z,5.63
2023-05-20T10:38:55.998Z,5.07
2023-05-20T10:41:26.563Z,5.78
2023-05-20T10:44:03.133Z,5.20
2023-05-20T10:46:40.150Z,5.22
2023-05-20T10:49:24.006Z,4.55
2023-05-20T10:51:55.621Z,6.00
2023-05-20T10:54:24.176Z,5.13
2023-05-20T10:56:53.623Z,4.85
2023-05-20T10:59:22.776Z,5.30
2023-05-20T11:01:51.632Z,5.80
2023-05-20T11:04:20.954Z,6.00
2023-05-20T11:06:54.211Z,5.63
2023-05-20T11:09:22.730Z,5.95
2023-05-20T11:11:51.500Z,5.80
2023-05-20T11:14:20.283Z,5.93
2023-05-20T11:16:57.954Z,4.43
2023-05-20T11:19:26.677Z,5.35
2023-05-20T11:21:55.114Z,6.15
2023-05-20T11:24:29.192Z,4.90
2023-05-20T11:26:57.661Z,5.18
2023-05-20T11:29:29.130Z,5.45
2023-05-20T11:31:58.798Z,5.05
2023-05-20T11:34:28.211Z,5.90
2023-05-20T11:36:58.501Z,5.15
2023-05-20T11:39:30.298Z,5.90
2023-05-20T11:41:58.943Z,5.43
2023-05-20T11:44:27.166Z,5.65
2023-05-20T11:47:02.649Z,4.68
2023-05-20T11:49:31.181Z,4.28
2023-05-20T11:51:59.293Z,5.38
2023-05-20T11:54:27.491Z,5.47
2023-05-20T11:56:56.507Z,5.43
2023-05-20T11:59:25.922Z,4.57
2023-05-20T12:01:53.998Z,4.68
2023-05-20T12:04:23.553Z,4.65
2023-05-20T12:06:53.202Z,4.97
2023-05-20T12:09:21.249Z,5.50
2023-05-20T12:11:49.361Z,4.72
2023-05-20T12:14:17.290Z,4.97
2023-05-20T12:16:45.290Z,5.63
2023-05-20T12:19:13.300Z,4.90
2023-05-20T12:21:42.738Z,5.45
2023-05-20T12:24:11.150Z,5.07
2023-05-20T12:26:39.126Z,5.88
2023-05-20T12:29:07.259Z,5.05
2023-05-20T12:31:35.385Z,5.22
2023-05-20T12:34:03.670Z,4.63
2023-05-20T12:36:31.742Z,5.00
2023-05-20T12:39:01.107Z,4.22
2023-05-20T12:41:29.044Z,5.13
2023-05-20T12:43:56.998Z,5.20
2023-05-20T12:46:25.118Z,5.80
2023-05-20T12:48:53.259Z,4.93
2023-05-20T12:51:21.236Z,4.85
2023-05-20T12:53:49.364Z,5.05
2023-05-20T12:56:19.366Z,5.43
2023-05-20T12:58:47.360Z,4.82
2023-05-20T13:01:15.396Z,4.25
2023-05-20T13:03:43.413Z,5.28
2023-05-20T13:06:11.487Z,5.32
2023-05-20T13:08:39.451Z,4.72
2023-05-20T13:11:07.361Z,4.97
2023-05-20T13:13:36.666Z,4.93
2023-05-20T13:16:05.015Z,4.72
2023-05-20T13:18:32.912Z,4.70
2023-05-20T13:21:00.872Z,4.32
2023-05-20T13:23:28.801Z,5.30
2023-05-20T13:25:56.816Z,5.35
2023-05-20T13:28:24.749Z,5.22
2023-05-20T13:30:54.126Z,5.03
2023-05-20T13:33:24.090Z,4.32
2023-05-20T13:35:52.188Z,4.07
2023-05-20T13:38:20.141Z,3.78
2023-05-20T13:40:49.010Z,4.53
2023-05-20T13:43:17.020Z,4.63
2023-05-20T13:45:45.271Z,3.90
2023-05-20T13:48:14.600Z,3.40
2023-05-20T13:50:42.629Z,4.18
2023-05-20T13:53:12.524Z,4.00
2023-05-20T13:55:40.830Z,4.70
2023-05-20T13:58:10.041Z,4.50
2023-05-20T14:00:38.796Z,3.60
2023-05-20T14:03:09.118Z,4.28
2023-05-20T14:05:38.744Z,6.35
2023-05-20T14:08:06.800Z,5.05
2023-05-20T14:10:34.902Z,5.78
2023-05-20T14:13:03.110Z,6.75
2023-05-20T14:15:31.511Z,8.55
2023-05-20T14:17:59.545Z,6.00
2023-05-20T14:20:27.510Z,4.70
2023-05-20T14:22:56.832Z,5.53
2023-05-20T14:25:24.777Z,4.93
2023-05-20T14:27:52.692Z,8.05
2023-05-20T14:30:20.599Z,7.20
2023-05-20T14:32:48.620Z,11.18
2023-05-20T14:35:18.239Z,8.45
2023-05-20T14:37:46.416Z,6.68
2023-05-20T14:40:16.605Z,8.20
2023-05-20T14:42:44.532Z,5.30
2023-05-20T14:45:12.595Z,10.73
2023-05-20T14:47:41.017Z,11.88
2023-05-20T14:50:09.584Z,9.10
2023-05-20T14:52:37.526Z,11.82
2023-05-20T14:55:06.294Z,10.82
2023-05-20T14:57:35.676Z,11.02
2023-05-20T15:00:04.277Z,13.07
2023-05-20T15:02:32.314Z,12.23
2023-05-20T15:05:00.294Z,14.15
2023-05-20T15:07:28.253Z,10.80
2023-05-20T15:09:56.412Z,12.65
2023-05-20T15:12:24.487Z,13.13
2023-05-20T15:14:53.751Z,12.88
2023-05-20T15:17:22.009Z,14.10
2023-05-20T15:19:49.983Z,7.80
2023-05-20T15:22:17.953Z,9.93
2023-05-20T15:24:45.862Z,18.58
2023-05-20T15:27:13.830Z,16.10
2023-05-20T15:29:41.780Z,15.50
2023-05-20T15:32:11.302Z,16.55
2023-05-20T15:34:39.249Z,9.88
2023-05-20T15:37:07.281Z,14.45
2023-05-20T15:39:38.455Z,15.35
2023-05-20T15:42:06.574Z,10.05
2023-05-20T15:44:36.098Z,14.68
2023-05-20T15:47:05.782Z,11.57
2023-05-20T15:49:35.174Z,8.63
2023-05-20T15:52:04.218Z,10.13
2023-05-20T15:54:32.857Z,10.68
2023-05-20T15:57:01.106Z,7.03
2023-05-20T15:59:29.078Z,10.27
2023-05-20T16:01:57.066Z,13.00
2023-05-20T16:04:25.210Z,6.28
2023-05-20T16:06:54.647Z,10.07
2023-05-20T16:09:22.671Z,10.05
2023-05-20T16:11:50.676Z,10.35
2023-05-20T16:14:18.591Z,8.20
2023-05-20T16:16:46.658Z,10.93
2023-05-20T16:19:14.724Z,10.20
2023-05-20T16:21:42.721Z,10.00
2023-05-20T16:24:12.477Z,11.45
2023-05-20T16:26:40.544Z,11.88
2023-05-20T16:29:08.542Z,13.30
2023-05-20T16:31:36.553Z,13.32
2023-05-20T16:34:04.980Z,10.98
2023-05-20T16:36:32.937Z,12.00
2023-05-20T16:39:01.043Z,13.07
2023-05-20T16:41:30.738Z,13.82
2023-05-20T16:43:58.690Z,11.48
2023-05-20T16:46:26.646Z,9.50
2023-05-20T16:48:54.593Z,10.13
2023-05-20T16:51:22.754Z,5.28
2023-05-20T16:53:50.657Z,8.00
2023-05-20T16:56:18.626Z,5.22
2023-05-20T16:58:48.526Z,5.88
2023-05-20T17:01:17.428Z,30.17
2023-05-20T17:03:45.456Z,16.17
2023-05-20T17:06:13.620Z,8.50
2023-05-20T17:08:41.665Z,10.25
2023-05-20T17:11:09.594Z,6.97
2023-05-20T17:13:37.585Z,6.85
2023-05-20T17:16:09.725Z,6.32
2023-05-20T17:18:38.034Z,5.63
2023-05-20T17:21:06.382Z,5.90
2023-05-20T17:23:34.362Z,6.72
2023-05-20T17:26:02.378Z,6.13
2023-05-20T17:28:30.715Z,5.97
2023-05-20T17:30:58.762Z,6.75
2023-05-20T17:33:28.095Z,7.10
2023-05-20T17:35:56.057Z,8.82
2023-05-20T17:38:26.264Z,7.50
2023-05-20T17:40:54.822Z,8.80
2023-05-20T17:43:25.144Z,10.48
2023-05-20T17:45:53.349Z,7.80
2023-05-20T17:48:21.388Z,8.63
2023-05-20T17:50:50.838Z,8.00
2023-05-20T17:53:21.096Z,7.75
2023-05-20T17:55:49.931Z,7.22
2023-05-20T17:58:17.995Z,7.53
2023-05-20T18:00:45.963Z,7.72
2023-05-20T18:03:14.199Z,7.28
2023-05-20T18:05:42.404Z,7.35
2023-05-20T18:08:11.778Z,7.03
2023-05-20T18:10:40.059Z,6.90
2023-05-20T18:13:08.367Z,6.57
2023-05-20T18:15:36.334Z,6.57
2023-05-20T18:18:04.438Z,7.53
2023-05-20T18:20:32.465Z,6.93
2023-05-20T18:23:00.498Z,7.53
2023-05-20T18:25:29.897Z,7.20
2023-05-20T18:27:57.856Z,8.18
2023-05-20T18:30:26.158Z,7.78
2023-05-20T18:32:54.414Z,6.72
2023-05-20T18:35:22.626Z,7.68
2023-05-20T18:37:51.464Z,8.48
2023-05-20T18:40:20.694Z,7.50
2023-05-20T18:42:50.060Z,7.15
2023-05-20T18:45:18.267Z,8.15
2023-05-20T18:47:46.291Z,8.05
2023-05-20T18:50:14.320Z,7.78
2023-05-20T18:52:42.252Z,7.70
2023-05-20T18:55:10.512Z,8.00
2023-05-20T18:57:39.048Z,7.55
2023-05-20T19:00:12.296Z,7.80
2023-05-20T19:02:40.776Z,8.07
2023-05-20T19:05:10.637Z,7.68
2023-05-20T19:07:38.882Z,9.30
2023-05-20T19:10:08.019Z,8.05
2023-05-20T19:12:36.393Z,8.77
2023-05-20T19:15:05.177Z,7.57
2023-05-20T19:17:34.744Z,8.30
2023-05-20T19:20:03.137Z,8.40
2023-05-20T19:22:31.110Z,8.93
2023-05-20T19:24:59.155Z,8.65
2023-05-20T19:27:27.189Z,8.60
2023-05-20T19:29:55.226Z,8.57
2023-05-20T19:32:23.275Z,8.95
2023-05-20T19:34:52.652Z,8.93
2023-05-20T19:37:22.898Z,8.73
2023-05-20T19:39:51.224Z,9.07
2023-05-20T19:42:19.236Z,9.15
2023-05-20T19:44:47.448Z,8.60
2023-05-20T19:47:15.768Z,9.35
2023-05-20T19:49:43.691Z,8.65
2023-05-20T19:52:13.016Z,9.55
2023-05-20T19:54:42.965Z,8.77
2023-05-20T19:57:11.324Z,9.48
2023-05-20T19:59:39.224Z,9.40
2023-05-20T20:02:07.828Z,9.65
2023-05-20T20:04:36.191Z,8.88
2023-05-20T20:07:04.250Z,9.25
2023-05-20T20:09:33.531Z,9.02
2023-05-20T20:12:02.722Z,9.98
2023-05-20T20:14:30.906Z,9.63
2023-05-20T20:16:59.791Z,10.60
2023-05-20T20:19:28.578Z,9.63
2023-05-20T20:21:58.210Z,10.50
2023-05-20T20:24:26.796Z,10.30
2023-05-20T20:26:56.980Z,9.65
2023-05-20T20:29:25.162Z,9.63
2023-05-20T20:31:53.273Z,9.68
2023-05-20T20:34:22.067Z,9.95
2023-05-20T20:36:51.300Z,9.25
2023-05-20T20:39:20.010Z,10.27
2023-05-20T20:41:50.529Z,9.73
2023-05-20T20:44:22.530Z,9.68
2023-05-20T20:46:51.621Z,8.68
2023-05-20T20:49:20.245Z,9.82
2023-05-20T20:51:48.760Z,9.35
2023-05-20T20:54:17.001Z,9.65
2023-05-20T20:56:47.224Z,9.35
2023-05-20T20:59:15.806Z,8.95
2023-05-20T21:01:45.708Z,9.80
2023-05-20T21:04:14.531Z,8.77
2023-05-20T21:06:45.928Z,9.27
2023-05-20T21:09:14.066Z,9.55
2023-05-20T21:11:43.013Z,9.05
2023-05-20T21:14:11.149Z,8.98
2023-05-20T21:16:39.598Z,8.52
2023-05-20T21:19:09.054Z,9.90
2023-05-20T21:21:37.071Z,9.13
2023-05-20T21:24:05.237Z,9.70
2023-05-20T21:26:33.135Z,9.50
2023-05-20T21:29:01.079Z,9.55
2023-05-20T21:31:29.077Z,9.27
2023-05-20T21:33:57.079Z,9.52
2023-05-20T21:36:26.385Z,10.10
2023-05-20T21:38:54.304Z,9.23
2023-05-20T21:41:23.491Z,9.23
2023-05-20T21:43:51.600Z,9.98
2023-05-20T21:46:19.545Z,9.23
2023-05-20T21:48:47.617Z,9.30
2023-05-20T21:51:15.753Z,9.27
2023-05-20T21:53:45.253Z,10.05
2023-05-20T21:56:13.186Z,9.00
2023-05-20T21:58:41.876Z,7.68
2023-05-20T22:01:10.244Z,9.07
2023-05-20T22:03:39.967Z,7.47
2023-05-20T22:06:08.239Z,8.30
2023-05-20T22:08:36.204Z,7.82
2023-05-20T22:11:07.284Z,7.38
2023-05-20T22:13:36.304Z,7.78
2023-05-20T22:16:05.121Z,7.53
2023-05-20T22:18:33.324Z,7.40
2023-05-20T22:21:01.408Z,7.45
2023-05-20T22:23:29.916Z,7.20
2023-05-20T22:25:58.216Z,7.32
2023-05-20T22:28:27.638Z,7.60
2023-05-20T22:30:55.874Z,7.65
2023-05-20T22:33:24.425Z,7.78
2023-05-20T22:35:53.530Z,6.72
2023-05-20T22:38:22.011Z,7.60
2023-05-20T22:40:49.933Z,7.32
2023-05-20T22:43:17.915Z,7.47
2023-05-20T22:45:47.261Z,7.35
2023-05-20T22:48:15.369Z,6.93
2023-05-20T22:50:43.293Z,7.15
2023-05-20T22:53:11.195Z,7.22
2023-05-20T22:55:39.654Z,6.95
2023-05-20T22:58:08.446Z,7.68
2023-05-20T23:00:36.444Z,7.07
2023-05-20T23:03:06.312Z,6.95
2023-05-20T23:05:34.436Z,6.78
2023-05-20T23:08:02.528Z,6.75
2023-05-20T23:10:30.631Z,6.45
2023-05-20T23:12:58.669Z,7.25
2023-05-20T23:15:27.701Z,7.90
2023-05-20T23:17:55.815Z,6.43
2023-05-20T23:20:25.733Z,7.70
2023-05-20T23:22:53.712Z,7.35
2023-05-20T23:25:22.017Z,6.85
2023-05-20T23:27:50.031Z,6.90
2023-05-20T23:30:18.022Z,7.13
2023-05-20T23:32:46.447Z,7.22
2023-05-20T23:35:14.415Z,7.32
2023-05-20T23:37:43.741Z,7.70
2023-05-20T23:40:12.284Z,6.75
2023-05-20T23:42:40.689Z,7.38
2023-05-20T23:45:09.500Z,7.22
2023-05-20T23:47:37.970Z,7.57
2023-05-20T23:50:06.555Z,7.82
2023-05-20T23:52:34.515Z,7.97
2023-05-20T23:55:03.827Z,8.13
2023-05-20T23:57:31.786Z,7.80
2023-05-20T23:59:59.764Z,7.57
